Adams, Illinois
Current Conditions -  °F | °C
As of 6:54 AM on Thursday 30 Oct 2014 (Local Time) from KUIN Reporting Station
Few Clouds Few Clouds  
Wind Chill: 37°   Ceiling: Unl
Heat Index: 41°   Visibility: 10mi
Dew Point: 34°   Wind: 6mph
Humidity: 76%   Direction: 150°SSE
Pressure: 30.1"   Gusts: NA
Location:  39.8875°N, 91.0352°W
Report Text: KUIN 301154Z AUTO 15005KT 10SM FEW085 05/01 A3010 RMK AO2 SLP196 T00500011 10056 20022 58007
Loading
Personal Weather Stations






























Interactive Weather Map
Tropical Storm Tracking
New forecast layout! Learn more

10-Day Weather Forecast

Advertisements
Track Severe Weather on mobile